Thunder radar more information blitzortung!


Radar de pluja more information rain snow radar


Visita la nostra xarxa de llocs de meteo:

Template documentation
and downloads

And another site



No particular awareness of the weather is required.    There are no Weather-warnings

Pagina Historial Weather Underground text

Diari Resum January 18, 2016 Unitats:  Mètric    Imperial   Tant
« Previous Dia
SegĂźent Dia »
Diari Setmana Mensual Anual Personalitzada
  Maxima: Minima: Media:
Temperatura: 12.7 °C 6.2 °C 9.9 °C
Punt de rosada: 1.9 °C -3.4 °C 0 °C
Humitat: 60 % 46 % 50 %
Wind Speed: 14.8 km/h 0.0 km/h 5.2 km/h
RĂ fegues de vent: 14.8 km/h - -
Vent:- - SSW
Pression baro: 1016.8 hPa 1010.7 hPa -
Precipitacions: 0.0 mm    
Historical Graphs
 
 
Dades de taula per January 18, 2016
Temps Temperatura Punt de rosada Pression baro Vent Wind Speed RĂ fegues de vent Humitat Rainfall Rate (Hourly)
11:09 6.2 °C -3.4 °C 1016.8 hPa ENE 5.6 km/h 5.6 km/h 50 % 0.0 mm
11:19 6.6 °C -3.1 °C 1016.8 hPa NNE 6.1 km/h 6.1 km/h 50 % 0.0 mm
11:34 7.4 °C -2.3 °C 1016.8 hPa NNE 5.6 km/h 5.6 km/h 50 % 0.0 mm
11:39 7.9 °C -1.9 °C 1015.8 hPa NNE 3.2 km/h 3.2 km/h 50 % 0.0 mm
11:44 8.0 °C -1.8 °C 1015.8 hPa NNE 3.9 km/h 3.9 km/h 50 % 0.0 mm
11:49 8.2 °C -1.6 °C 1015.8 hPa NNE 5.6 km/h 5.6 km/h 50 % 0.0 mm
11:54 8.6 °C -1.3 °C 1015.8 hPa NNE 6.4 km/h 6.4 km/h 50 % 0.0 mm
11:59 8.8 °C -1.1 °C 1015.8 hPa NNE 3.9 km/h 3.9 km/h 50 % 0.0 mm
12:04 9.1 °C -1.1 °C 1015.8 hPa NE 5.6 km/h 5.6 km/h 49 % 0.0 mm
12:09 9.3 °C -0.9 °C 1015.8 hPa ENE 6.9 km/h 6.9 km/h 49 % 0.0 mm
12:14 9.2 °C -1.3 °C 1015.8 hPa East 5.6 km/h 5.6 km/h 48 % 0.0 mm
12:19 9.2 °C -1.3 °C 1015.8 hPa NE 7.4 km/h 7.4 km/h 48 % 0.0 mm
12:24 9.4 °C -1.1 °C 1015.8 hPa ENE 9.3 km/h 9.3 km/h 48 % 0.0 mm
12:34 9.3 °C -1.4 °C 1015.8 hPa ENE 9.3 km/h 9.3 km/h 47 % 0.0 mm
12:44 9.6 °C -1.2 °C 1015.8 hPa ENE 7.4 km/h 7.4 km/h 47 % 0.0 mm
12:49 9.3 °C -1.4 °C 1015.8 hPa NE 9.3 km/h 9.3 km/h 47 % 0.0 mm
12:54 9.2 °C -1.8 °C 1014.8 hPa ENE 9.3 km/h 9.3 km/h 46 % 0.0 mm
12:59 9.1 °C -1.9 °C 1014.8 hPa ENE 7.4 km/h 7.4 km/h 46 % 0.0 mm
13:04 9.3 °C -1.7 °C 1014.8 hPa NNE 4.7 km/h 4.7 km/h 46 % 0.0 mm
13:09 9.6 °C -1.4 °C 1014.8 hPa NW 3.7 km/h 3.7 km/h 46 % 0.0 mm
13:14 9.7 °C -1.4 °C 1014.8 hPa NNW 5.6 km/h 5.6 km/h 46 % 0.0 mm
13:19 10.0 °C -0.8 °C 1014.8 hPa NE 3.7 km/h 3.9 km/h 47 % 0.0 mm
13:24 10.1 °C -1.0 °C 1013.8 hPa NE 5.6 km/h 5.6 km/h 46 % 0.0 mm
13:29 10.2 °C -0.9 °C 1013.8 hPa NNE 3.7 km/h 3.7 km/h 46 % 0.0 mm
13:34 10.6 °C -0.6 °C 1013.8 hPa NE 5.0 km/h 5.0 km/h 46 % 0.0 mm
13:39 10.6 °C -0.6 °C 1012.8 hPa South 3.7 km/h 3.9 km/h 46 % 0.0 mm
13:54 10.8 °C -0.4 °C 1013.8 hPa SW 5.8 km/h 5.8 km/h 46 % 0.0 mm
13:59 10.8 °C -0.4 °C 1013.8 hPa SW 5.6 km/h 5.6 km/h 46 % 0.0 mm
14:04 10.8 °C -0.4 °C 1013.8 hPa SW 4.2 km/h   46 % 0.0 mm
14:09 10.8 °C -0.4 °C 1013.8 hPa SSE 5.6 km/h 5.6 km/h 46 % 0.0 mm
14:14 10.8 °C -0.4 °C 1013.8 hPa WSW 6.4 km/h 6.4 km/h 46 % 0.0 mm
14:19 10.8 °C -0.4 °C 1013.8 hPa South 3.7 km/h   46 % 0.0 mm
14:24 10.8 °C -0.4 °C 1012.8 hPa WSW 4.7 km/h 4.7 km/h 46 % 0.0 mm
14:29 10.8 °C -0.4 °C 1012.8 hPa SW 2.3 km/h 2.3 km/h 46 % 0.0 mm
14:34 10.8 °C -0.4 °C 1012.8 hPa SW 3.9 km/h 4.2 km/h 46 % 0.0 mm
14:39 10.8 °C -0.4 °C 1013.8 hPa WSW 3.7 km/h 3.7 km/h 46 % 0.0 mm
14:44 11.9 °C 0.6 °C 1013.8 hPa WSW 5.6 km/h 5.6 km/h 46 % 0.0 mm
14:49 11.9 °C 0.6 °C 1013.8 hPa SW 9.3 km/h 9.3 km/h 46 % 0.0 mm
14:54 11.8 °C 0.6 °C 1012.8 hPa NW 3.7 km/h 3.7 km/h 46 % 0.0 mm
14:59 11.8 °C 0.6 °C 1012.8 hPa NW 1.9 km/h   46 % 0.0 mm
15:04 11.8 °C 0.6 °C 1012.8 hPa NW 1.9 km/h   46 % 0.0 mm
15:09 11.7 °C 0.4 °C 1011.7 hPa NNE 3.5 km/h 3.5 km/h 46 % 0.0 mm
15:14 11.7 °C 0.4 °C 1011.7 hPa SW 3.7 km/h 3.7 km/h 46 % 0.0 mm
15:19 11.7 °C 0.4 °C 1011.7 hPa NNE 3.7 km/h 3.7 km/h 46 % 0.0 mm
15:24 11.8 °C 0.6 °C 1012.8 hPa NNW 2.3 km/h   46 % 0.0 mm
15:29 11.8 °C 0.6 °C 1012.8 hPa WSW 5.6 km/h 5.6 km/h 46 % 0.0 mm
15:34 12.0 °C 1.0 °C 1012.8 hPa West 5.6 km/h 5.6 km/h 47 % 0.0 mm
15:39 12.0 °C 1.0 °C 1011.7 hPa WSW 5.6 km/h 5.6 km/h 47 % 0.0 mm
15:44 12.0 °C 1.0 °C 1011.7 hPa WSW 9.3 km/h 9.3 km/h 47 % 0.0 mm
15:49 12.0 °C 1.0 °C 1011.7 hPa WSW 5.6 km/h 5.6 km/h 47 % 0.0 mm
15:54 12.0 °C 1.0 °C 1011.7 hPa West 9.3 km/h 9.3 km/h 47 % 0.0 mm
15:59 12.0 °C 1.0 °C 1011.7 hPa West 7.4 km/h 7.4 km/h 47 % 0.0 mm
16:04 12.0 °C 1.0 °C 1011.7 hPa West 7.4 km/h 7.4 km/h 47 % 0.0 mm
16:09 12.1 °C 1.4 °C 1011.7 hPa WSW 5.6 km/h 5.6 km/h 48 % 0.0 mm
16:14 12.1 °C 1.4 °C 1011.7 hPa WNW 9.3 km/h 9.3 km/h 48 % 0.0 mm
16:19 12.1 °C 1.4 °C 1011.7 hPa WSW 5.6 km/h 5.6 km/h 48 % 0.0 mm
16:24 12.7 °C 1.9 °C 1011.7 hPa WSW 9.3 km/h 9.3 km/h 48 % 0.0 mm
16:29 12.7 °C 1.9 °C 1011.7 hPa WSW 9.0 km/h 9.0 km/h 48 % 0.0 mm
16:34 12.2 °C 1.5 °C 1011.7 hPa NW 8.7 km/h 8.7 km/h 48 % 0.0 mm
16:39 12.1 °C 1.4 °C 1010.7 hPa SW 5.6 km/h 5.6 km/h 48 % 0.0 mm
16:44 12.1 °C 1.7 °C 1010.7 hPa West 7.4 km/h 7.4 km/h 49 % 0.0 mm
16:54 11.9 °C 1.5 °C 1011.7 hPa SW 11.1 km/h 11.1 km/h 49 % 0.0 mm
16:59 11.8 °C 1.7 °C 1011.7 hPa WSW 14.8 km/h 14.8 km/h 50 % 0.0 mm
17:04 11.8 °C 1.7 °C 1011.7 hPa WSW 9.3 km/h 9.3 km/h 50 % 0.0 mm
17:09 11.7 °C 1.6 °C 1011.7 hPa West 5.6 km/h 5.6 km/h 50 % 0.0 mm
17:14 11.7 °C 1.6 °C 1011.7 hPa West 5.6 km/h 5.6 km/h 50 % 0.0 mm
17:19 11.5 °C 1.4 °C 1011.7 hPa West 4.7 km/h 4.7 km/h 50 % 0.0 mm
17:24 11.4 °C 1.3 °C 1011.7 hPa West 5.6 km/h 5.6 km/h 50 % 0.0 mm
17:34 11.3 °C 1.2 °C 1011.7 hPa West 5.6 km/h 5.6 km/h 50 % 0.0 mm
17:39 11.1 °C 1.1 °C 1012.8 hPa WSW 5.6 km/h 5.6 km/h 50 % 0.0 mm
17:44 11.0 °C 0.9 °C 1012.8 hPa WSW 3.7 km/h 3.7 km/h 50 % 0.0 mm
17:49 10.9 °C 0.9 °C 1012.8 hPa West 6.1 km/h 6.1 km/h 50 % 0.0 mm
17:59 10.6 °C 0.9 °C 1012.8 hPa NW 2.3 km/h   51 % 0.0 mm
18:04 10.4 °C 0.7 °C 1012.8 hPa Calm     51 % 0.0 mm
18:09 10.3 °C 0.6 °C 1012.8 hPa NE 7.4 km/h 7.4 km/h 51 % 0.0 mm
18:19 10.1 °C 0.4 °C 1012.8 hPa NW 1.9 km/h 1.9 km/h 51 % 0.0 mm
18:24 10.0 °C 0.3 °C 1012.8 hPa NW 3.5 km/h 3.5 km/h 51 % 0.0 mm
18:34 9.9 °C 0.2 °C 1012.8 hPa SW 2.3 km/h 2.3 km/h 51 % 0.0 mm
18:39 9.8 °C 0.1 °C 1012.8 hPa West 5.6 km/h 5.6 km/h 51 % 0.0 mm
18:44 9.7 °C 0.1 °C 1012.8 hPa WSW 1.9 km/h   51 % 0.0 mm
18:49 9.6 °C -0.1 °C 1012.8 hPa WSW 4.7 km/h 4.7 km/h 51 % 0.0 mm
18:54 9.6 °C -0.1 °C 1012.8 hPa West 5.6 km/h 5.6 km/h 51 % 0.0 mm
19:04 9.1 °C -0.3 °C 1012.8 hPa SW 3.7 km/h 3.7 km/h 52 % 0.0 mm
19:09 9.0 °C -0.3 °C 1012.8 hPa East 3.9 km/h 3.9 km/h 52 % 0.0 mm
19:14 9.0 °C -0.3 °C 1012.8 hPa ENE 5.6 km/h 5.6 km/h 52 % 0.0 mm
19:19 9.0 °C -0.3 °C 1012.8 hPa ENE 5.6 km/h 5.6 km/h 52 % 0.0 mm
19:29 8.9 °C -0.4 °C 1013.8 hPa NE 3.7 km/h 3.7 km/h 52 % 0.0 mm
19:34 8.9 °C -0.4 °C 1013.8 hPa NE 1.9 km/h 1.9 km/h 52 % 0.0 mm
19:39 8.9 °C -0.4 °C 1013.8 hPa Calm     52 % 0.0 mm
19:44 8.7 °C -0.3 °C 1013.8 hPa Calm     53 % 0.0 mm
19:54 8.5 °C -0.6 °C 1013.8 hPa Calm     53 % 0.0 mm
19:59 8.5 °C -0.6 °C 1013.8 hPa Calm     53 % 0.0 mm
20:04 8.5 °C -0.6 °C 1013.8 hPa SSW 1.9 km/h 1.9 km/h 53 % 0.0 mm
20:09 8.5 °C -0.6 °C 1013.8 hPa Calm     53 % 0.0 mm
20:14 8.4 °C -0.6 °C 1013.8 hPa WSW 1.9 km/h 1.9 km/h 53 % 0.0 mm
20:19 8.3 °C -0.7 °C 1013.8 hPa WSW 1.9 km/h 1.9 km/h 53 % 0.0 mm
20:24 8.4 °C -0.6 °C 1013.8 hPa WSW 3.7 km/h 3.7 km/h 53 % 0.0 mm
20:29 8.4 °C -0.6 °C 1013.8 hPa Calm     53 % 0.0 mm
20:34 8.3 °C -0.7 °C 1013.8 hPa WSW 5.0 km/h 5.0 km/h 53 % 0.0 mm
20:39 8.0 °C -1.0 °C 1013.8 hPa WSW 3.7 km/h 3.7 km/h 53 % 0.0 mm
20:44 8.0 °C -0.8 °C 1013.8 hPa WSW 3.7 km/h 3.7 km/h 54 % 0.0 mm
20:49 8.0 °C -0.8 °C 1013.8 hPa Calm     54 % 0.0 mm
20:54 8.3 °C -0.5 °C 1013.8 hPa WSW 5.6 km/h 5.6 km/h 54 % 0.0 mm
20:59 8.5 °C -0.1 °C 1013.8 hPa WSW 5.6 km/h 5.8 km/h 55 % 0.0 mm
21:09 8.6 °C 0.3 °C 1013.8 hPa WNW 2.6 km/h 2.6 km/h 56 % 0.0 mm
21:14 8.6 °C 0.3 °C 1013.8 hPa SSW 2.6 km/h 2.6 km/h 56 % 0.0 mm
21:19 8.6 °C 0.3 °C 1013.8 hPa WSW 5.6 km/h 5.6 km/h 56 % 0.0 mm
21:24 8.5 °C 0.2 °C 1013.8 hPa WSW 4.2 km/h 4.2 km/h 56 % 0.0 mm
21:29 8.5 °C 0.4 °C 1013.8 hPa SW 5.8 km/h 5.8 km/h 57 % 0.0 mm
21:39 8.6 °C 1.3 °C 1013.8 hPa WSW 9.3 km/h 9.3 km/h 60 % 0.0 mm
21:44 8.6 °C 1.3 °C 1013.8 hPa WSW 7.4 km/h 7.4 km/h 60 % 0.0 mm
21:49 8.7 °C 1.3 °C 1013.8 hPa SW 9.3 km/h 9.3 km/h 60 % 0.0 mm
21:54 8.7 °C 1.3 °C 1013.8 hPa West 13.0 km/h 13.0 km/h 60 % 0.0 mm
21:59 8.7 °C 1.3 °C 1013.8 hPa West 9.3 km/h 9.3 km/h 60 % 0.0 mm
22:19 8.6 °C 1.1 °C 1014.8 hPa NNW 9.3 km/h 9.3 km/h 59 % 0.0 mm
22:24 8.6 °C 1.1 °C 1014.8 hPa WSW 3.7 km/h 3.9 km/h 59 % 0.0 mm
22:29 8.5 °C 0.9 °C 1014.8 hPa West 5.6 km/h 5.6 km/h 59 % 0.0 mm
22:44 8.2 °C 0.7 °C 1014.8 hPa West 5.6 km/h 5.6 km/h 59 % 0.0 mm
22:49 8.3 °C 0.7 °C 1014.8 hPa West 7.4 km/h 7.6 km/h 59 % 0.0 mm
22:54 8.2 °C 0.7 °C 1013.8 hPa SW 5.6 km/h 5.6 km/h 59 % 0.0 mm
22:59 8.1 °C 0.6 °C 1013.8 hPa WSW 5.6 km/h 5.6 km/h 59 % 0.0 mm
23:04 8.0 °C 0.4 °C 1013.8 hPa West 6.9 km/h 6.9 km/h 59 % 0.0 mm
Meteo Sesrovires
Elogis d' Weather Underground - 3.25 mb

Guio original per  Jim McMurry - jmcmurry@mwt.net Adaptat per a la plantilla per  Wim van der Kuil - Leuven-Template.eu

Trobareu la nostra informacio del temps tambe a:

Weather Underground

AWEKAS